sensor_id;sensor_type;location;lat;lon;timestamp;P1;durP1;ratioP1;P2;durP2;ratioP2
9445;SDS011;4761;49.490;10.908;2023-03-01T00:00:54;6.17;;;5.13;;
9445;SDS011;4761;49.490;10.908;2023-03-01T00:03:19;6.03;;;5.30;;
9445;SDS011;4761;49.490;10.908;2023-03-01T00:05:45;6.20;;;4.77;;
9445;SDS011;4761;49.490;10.908;2023-03-01T00:08:11;5.87;;;4.77;;
9445;SDS011;4761;49.490;10.908;2023-03-01T00:10:36;5.77;;;5.17;;
9445;SDS011;4761;49.490;10.908;2023-03-01T00:13:02;6.00;;;5.30;;
9445;SDS011;4761;49.490;10.908;2023-03-01T00:15:30;6.13;;;5.13;;
9445;SDS011;4761;49.490;10.908;2023-03-01T00:17:56;6.10;;;5.30;;
9445;SDS011;4761;49.490;10.908;2023-03-01T00:20:22;5.10;;;4.60;;
9445;SDS011;4761;49.490;10.908;2023-03-01T00:22:47;6.27;;;4.70;;
9445;SDS011;4761;49.490;10.908;2023-03-01T00:25:13;5.83;;;4.80;;
9445;SDS011;4761;49.490;10.908;2023-03-01T00:27:38;6.60;;;5.57;;
9445;SDS011;4761;49.490;10.908;2023-03-01T00:30:04;5.20;;;4.70;;
9445;SDS011;4761;49.490;10.908;2023-03-01T00:32:30;5.70;;;4.80;;
9445;SDS011;4761;49.490;10.908;2023-03-01T00:34:56;5.73;;;4.67;;
9445;SDS011;4761;49.490;10.908;2023-03-01T00:37:22;6.53;;;5.20;;
9445;SDS011;4761;49.490;10.908;2023-03-01T00:39:48;6.00;;;5.00;;
9445;SDS011;4761;49.490;10.908;2023-03-01T00:42:14;5.57;;;4.60;;
9445;SDS011;4761;49.490;10.908;2023-03-01T00:44:40;6.00;;;5.10;;
9445;SDS011;4761;49.490;10.908;2023-03-01T00:47:06;5.57;;;5.00;;
9445;SDS011;4761;49.490;10.908;2023-03-01T00:49:31;5.90;;;4.70;;
9445;SDS011;4761;49.490;10.908;2023-03-01T00:51:57;6.70;;;5.20;;
9445;SDS011;4761;49.490;10.908;2023-03-01T00:54:22;6.60;;;5.13;;
9445;SDS011;4761;49.490;10.908;2023-03-01T00:56:48;7.10;;;5.63;;
9445;SDS011;4761;49.490;10.908;2023-03-01T00:59:13;5.23;;;4.73;;
9445;SDS011;4761;49.490;10.908;2023-03-01T01:01:39;5.30;;;4.60;;
9445;SDS011;4761;49.490;10.908;2023-03-01T01:04:06;5.37;;;4.50;;
9445;SDS011;4761;49.490;10.908;2023-03-01T01:06:34;5.23;;;4.50;;
9445;SDS011;4761;49.490;10.908;2023-03-01T01:09:10;5.17;;;4.67;;
9445;SDS011;4761;49.490;10.908;2023-03-01T01:11:42;5.60;;;4.97;;
9445;SDS011;4761;49.490;10.908;2023-03-01T01:14:12;5.73;;;4.50;;
9445;SDS011;4761;49.490;10.908;2023-03-01T01:16:38;5.03;;;4.50;;
9445;SDS011;4761;49.490;10.908;2023-03-01T01:19:04;5.67;;;4.93;;
9445;SDS011;4761;49.490;10.908;2023-03-01T01:21:29;6.30;;;4.93;;
9445;SDS011;4761;49.490;10.908;2023-03-01T01:23:55;5.47;;;4.80;;
9445;SDS011;4761;49.490;10.908;2023-03-01T01:26:25;6.03;;;5.13;;
9445;SDS011;4761;49.490;10.908;2023-03-01T01:28:53;6.17;;;4.97;;
9445;SDS011;4761;49.490;10.908;2023-03-01T01:31:19;5.57;;;4.83;;
9445;SDS011;4761;49.490;10.908;2023-03-01T01:33:48;5.40;;;4.90;;
9445;SDS011;4761;49.490;10.908;2023-03-01T01:36:14;5.30;;;4.60;;
9445;SDS011;4761;49.490;10.908;2023-03-01T01:38:40;5.77;;;5.00;;
9445;SDS011;4761;49.490;10.908;2023-03-01T01:41:07;5.23;;;4.50;;
9445;SDS011;4761;49.490;10.908;2023-03-01T01:43:37;5.70;;;5.10;;
9445;SDS011;4761;49.490;10.908;2023-03-01T01:48:45;5.93;;;5.10;;
9445;SDS011;4761;49.490;10.908;2023-03-01T01:51:22;5.43;;;4.77;;
9445;SDS011;4761;49.490;10.908;2023-03-01T01:53:51;5.87;;;5.23;;
9445;SDS011;4761;49.490;10.908;2023-03-01T01:56:22;5.87;;;4.73;;
9445;SDS011;4761;49.490;10.908;2023-03-01T01:58:50;5.27;;;4.70;;
9445;SDS011;4761;49.490;10.908;2023-03-01T02:01:16;5.27;;;4.33;;
9445;SDS011;4761;49.490;10.908;2023-03-01T02:03:42;5.57;;;5.00;;
9445;SDS011;4761;49.490;10.908;2023-03-01T02:08:35;5.30;;;4.80;;
9445;SDS011;4761;49.490;10.908;2023-03-01T02:11:04;5.70;;;4.80;;
9445;SDS011;4761;49.490;10.908;2023-03-01T02:13:31;5.10;;;4.60;;
9445;SDS011;4761;49.490;10.908;2023-03-01T02:15:58;5.77;;;4.50;;
9445;SDS011;4761;49.490;10.908;2023-03-01T02:18:25;5.33;;;4.83;;
9445;SDS011;4761;49.490;10.908;2023-03-01T02:23:33;5.13;;;4.57;;
9445;SDS011;4761;49.490;10.908;2023-03-01T02:26:17;5.30;;;4.60;;
9445;SDS011;4761;49.490;10.908;2023-03-01T02:28:58;4.90;;;4.40;;
9445;SDS011;4761;49.490;10.908;2023-03-01T02:31:24;4.80;;;4.30;;
9445;SDS011;4761;49.490;10.908;2023-03-01T02:34:17;5.23;;;4.70;;
9445;SDS011;4761;49.490;10.908;2023-03-01T02:36:47;5.47;;;4.90;;
9445;SDS011;4761;49.490;10.908;2023-03-01T02:39:19;5.83;;;4.87;;
9445;SDS011;4761;49.490;10.908;2023-03-01T02:41:51;5.03;;;4.57;;
9445;SDS011;4761;49.490;10.908;2023-03-01T02:44:19;5.27;;;4.63;;
9445;SDS011;4761;49.490;10.908;2023-03-01T02:46:47;6.27;;;5.27;;
9445;SDS011;4761;49.490;10.908;2023-03-01T02:49:17;5.87;;;5.00;;
9445;SDS011;4761;49.490;10.908;2023-03-01T02:51:48;5.03;;;4.53;;
9445;SDS011;4761;49.490;10.908;2023-03-01T02:54:39;5.27;;;4.77;;
9445;SDS011;4761;49.490;10.908;2023-03-01T02:57:13;4.60;;;4.20;;
9445;SDS011;4761;49.490;10.908;2023-03-01T02:59:39;5.00;;;4.50;;
9445;SDS011;4761;49.490;10.908;2023-03-01T03:02:17;5.90;;;4.63;;
9445;SDS011;4761;49.490;10.908;2023-03-01T03:05:01;5.00;;;4.50;;
9445;SDS011;4761;49.490;10.908;2023-03-01T03:07:42;5.17;;;4.67;;
9445;SDS011;4761;49.490;10.908;2023-03-01T03:10:11;5.57;;;4.97;;
9445;SDS011;4761;49.490;10.908;2023-03-01T03:12:44;5.33;;;4.60;;
9445;SDS011;4761;49.490;10.908;2023-03-01T03:15:13;5.00;;;4.50;;
9445;SDS011;4761;49.490;10.908;2023-03-01T03:17:39;5.30;;;4.77;;
9445;SDS011;4761;49.490;10.908;2023-03-01T03:20:07;4.90;;;4.40;;
9445;SDS011;4761;49.490;10.908;2023-03-01T03:22:37;5.13;;;4.60;;
9445;SDS011;4761;49.490;10.908;2023-03-01T03:25:04;5.10;;;4.60;;
9445;SDS011;4761;49.490;10.908;2023-03-01T03:27:30;5.03;;;4.23;;
9445;SDS011;4761;49.490;10.908;2023-03-01T03:29:56;4.90;;;4.40;;
9445;SDS011;4761;49.490;10.908;2023-03-01T03:32:22;5.43;;;4.60;;
9445;SDS011;4761;49.490;10.908;2023-03-01T03:34:47;5.80;;;4.77;;
9445;SDS011;4761;49.490;10.908;2023-03-01T03:37:14;4.97;;;4.33;;
9445;SDS011;4761;49.490;10.908;2023-03-01T03:39:59;6.20;;;5.00;;
9445;SDS011;4761;49.490;10.908;2023-03-01T03:42:25;5.37;;;4.87;;
9445;SDS011;4761;49.490;10.908;2023-03-01T03:44:50;5.53;;;4.93;;
9445;SDS011;4761;49.490;10.908;2023-03-01T03:47:16;5.53;;;4.70;;
9445;SDS011;4761;49.490;10.908;2023-03-01T03:49:41;5.57;;;4.77;;
9445;SDS011;4761;49.490;10.908;2023-03-01T03:52:07;4.80;;;4.30;;
9445;SDS011;4761;49.490;10.908;2023-03-01T03:54:38;5.63;;;4.70;;
9445;SDS011;4761;49.490;10.908;2023-03-01T03:57:05;4.60;;;4.07;;
9445;SDS011;4761;49.490;10.908;2023-03-01T03:59:31;4.50;;;4.10;;
9445;SDS011;4761;49.490;10.908;2023-03-01T04:01:56;5.10;;;4.60;;
9445;SDS011;4761;49.490;10.908;2023-03-01T04:04:22;4.60;;;4.20;;
9445;SDS011;4761;49.490;10.908;2023-03-01T04:06:47;4.60;;;4.20;;
9445;SDS011;4761;49.490;10.908;2023-03-01T04:09:13;5.93;;;4.37;;
9445;SDS011;4761;49.490;10.908;2023-03-01T04:11:39;5.00;;;4.50;;
9445;SDS011;4761;49.490;10.908;2023-03-01T04:14:04;5.50;;;4.77;;
9445;SDS011;4761;49.490;10.908;2023-03-01T04:16:30;5.60;;;4.97;;
9445;SDS011;4761;49.490;10.908;2023-03-01T04:18:55;6.40;;;5.30;;
9445;SDS011;4761;49.490;10.908;2023-03-01T04:21:21;5.50;;;4.60;;
9445;SDS011;4761;49.490;10.908;2023-03-01T04:23:47;5.60;;;5.00;;
9445;SDS011;4761;49.490;10.908;2023-03-01T04:26:13;6.50;;;5.63;;
9445;SDS011;4761;49.490;10.908;2023-03-01T04:28:39;7.27;;;5.83;;
9445;SDS011;4761;49.490;10.908;2023-03-01T04:31:10;6.33;;;5.73;;
9445;SDS011;4761;49.490;10.908;2023-03-01T04:33:39;6.57;;;5.53;;
9445;SDS011;4761;49.490;10.908;2023-03-01T04:36:09;7.50;;;5.60;;
9445;SDS011;4761;49.490;10.908;2023-03-01T04:38:38;7.57;;;6.17;;
9445;SDS011;4761;49.490;10.908;2023-03-01T04:41:05;8.17;;;6.37;;
9445;SDS011;4761;49.490;10.908;2023-03-01T04:43:31;10.03;;;7.20;;
9445;SDS011;4761;49.490;10.908;2023-03-01T04:46:02;8.47;;;6.67;;
9445;SDS011;4761;49.490;10.908;2023-03-01T04:48:29;10.80;;;7.03;;
9445;SDS011;4761;49.490;10.908;2023-03-01T04:50:55;8.03;;;6.13;;
9445;SDS011;4761;49.490;10.908;2023-03-01T04:53:21;9.00;;;6.50;;
9445;SDS011;4761;49.490;10.908;2023-03-01T04:55:46;8.50;;;6.30;;
9445;SDS011;4761;49.490;10.908;2023-03-01T04:58:12;8.10;;;6.30;;
9445;SDS011;4761;49.490;10.908;2023-03-01T05:00:37;9.30;;;6.30;;
9445;SDS011;4761;49.490;10.908;2023-03-01T05:03:03;9.30;;;7.27;;
9445;SDS011;4761;49.490;10.908;2023-03-01T05:05:30;9.47;;;6.50;;
9445;SDS011;4761;49.490;10.908;2023-03-01T05:07:59;9.80;;;7.37;;
9445;SDS011;4761;49.490;10.908;2023-03-01T05:10:28;10.93;;;7.40;;
9445;SDS011;4761;49.490;10.908;2023-03-01T05:12:56;9.43;;;6.60;;
9445;SDS011;4761;49.490;10.908;2023-03-01T05:15:25;10.07;;;6.80;;
9445;SDS011;4761;49.490;10.908;2023-03-01T05:17:53;11.70;;;7.63;;
9445;SDS011;4761;49.490;10.908;2023-03-01T05:20:19;13.23;;;8.10;;
9445;SDS011;4761;49.490;10.908;2023-03-01T05:22:47;12.87;;;7.40;;
9445;SDS011;4761;49.490;10.908;2023-03-01T05:25:13;13.13;;;8.40;;
9445;SDS011;4761;49.490;10.908;2023-03-01T05:27:39;12.10;;;7.37;;
9445;SDS011;4761;49.490;10.908;2023-03-01T05:30:04;11.13;;;7.17;;
9445;SDS011;4761;49.490;10.908;2023-03-01T05:32:39;12.23;;;7.77;;
9445;SDS011;4761;49.490;10.908;2023-03-01T05:35:09;12.57;;;7.70;;
9445;SDS011;4761;49.490;10.908;2023-03-01T05:37:38;11.20;;;7.53;;
9445;SDS011;4761;49.490;10.908;2023-03-01T05:40:08;12.67;;;8.27;;
9445;SDS011;4761;49.490;10.908;2023-03-01T05:42:40;14.90;;;8.67;;
9445;SDS011;4761;49.490;10.908;2023-03-01T05:45:07;14.33;;;8.47;;
9445;SDS011;4761;49.490;10.908;2023-03-01T05:47:34;13.83;;;8.77;;
9445;SDS011;4761;49.490;10.908;2023-03-01T05:50:00;12.87;;;8.33;;
9445;SDS011;4761;49.490;10.908;2023-03-01T05:52:26;13.30;;;8.30;;
9445;SDS011;4761;49.490;10.908;2023-03-01T05:54:51;15.93;;;9.27;;
9445;SDS011;4761;49.490;10.908;2023-03-01T05:57:17;13.67;;;8.40;;
9445;SDS011;4761;49.490;10.908;2023-03-01T05:59:42;12.73;;;7.57;;
9445;SDS011;4761;49.490;10.908;2023-03-01T06:02:08;13.97;;;8.47;;
9445;SDS011;4761;49.490;10.908;2023-03-01T06:04:33;13.87;;;8.23;;
9445;SDS011;4761;49.490;10.908;2023-03-01T06:06:59;12.10;;;7.77;;
9445;SDS011;4761;49.490;10.908;2023-03-01T06:09:24;12.20;;;8.00;;
9445;SDS011;4761;49.490;10.908;2023-03-01T06:11:50;12.23;;;8.07;;
9445;SDS011;4761;49.490;10.908;2023-03-01T06:14:16;10.70;;;7.30;;
9445;SDS011;4761;49.490;10.908;2023-03-01T06:16:42;11.57;;;7.60;;
9445;SDS011;4761;49.490;10.908;2023-03-01T06:19:07;10.83;;;7.40;;
9445;SDS011;4761;49.490;10.908;2023-03-01T06:21:32;10.67;;;7.50;;
9445;SDS011;4761;49.490;10.908;2023-03-01T06:23:58;11.00;;;7.70;;
9445;SDS011;4761;49.490;10.908;2023-03-01T06:26:24;12.43;;;8.57;;
9445;SDS011;4761;49.490;10.908;2023-03-01T06:28:49;11.93;;;7.77;;
9445;SDS011;4761;49.490;10.908;2023-03-01T06:31:15;10.43;;;7.67;;
9445;SDS011;4761;49.490;10.908;2023-03-01T06:33:40;10.37;;;7.43;;
9445;SDS011;4761;49.490;10.908;2023-03-01T06:36:06;9.40;;;7.27;;
9445;SDS011;4761;49.490;10.908;2023-03-01T06:38:33;10.27;;;7.63;;
9445;SDS011;4761;49.490;10.908;2023-03-01T06:40:58;8.47;;;6.67;;
9445;SDS011;4761;49.490;10.908;2023-03-01T06:43:24;11.40;;;8.17;;
9445;SDS011;4761;49.490;10.908;2023-03-01T06:45:49;10.40;;;7.43;;
9445;SDS011;4761;49.490;10.908;2023-03-01T06:48:15;11.33;;;7.50;;
9445;SDS011;4761;49.490;10.908;2023-03-01T06:50:40;9.63;;;7.53;;
9445;SDS011;4761;49.490;10.908;2023-03-01T06:53:06;9.37;;;7.17;;
9445;SDS011;4761;49.490;10.908;2023-03-01T06:55:32;9.30;;;7.07;;
9445;SDS011;4761;49.490;10.908;2023-03-01T06:57:58;9.07;;;6.90;;
9445;SDS011;4761;49.490;10.908;2023-03-01T07:00:25;10.07;;;6.83;;
9445;SDS011;4761;49.490;10.908;2023-03-01T07:02:51;9.87;;;7.00;;
9445;SDS011;4761;49.490;10.908;2023-03-01T07:05:17;8.60;;;6.87;;
9445;SDS011;4761;49.490;10.908;2023-03-01T07:07:42;8.43;;;6.90;;
9445;SDS011;4761;49.490;10.908;2023-03-01T07:10:08;7.87;;;6.27;;
9445;SDS011;4761;49.490;10.908;2023-03-01T07:12:34;8.40;;;6.13;;
9445;SDS011;4761;49.490;10.908;2023-03-01T07:15:00;16.63;;;14.13;;
9445;SDS011;4761;49.490;10.908;2023-03-01T07:17:25;15.83;;;13.73;;
9445;SDS011;4761;49.490;10.908;2023-03-01T07:19:51;16.40;;;13.93;;
9445;SDS011;4761;49.490;10.908;2023-03-01T07:22:16;17.60;;;13.80;;
9445;SDS011;4761;49.490;10.908;2023-03-01T07:24:42;16.23;;;14.03;;
9445;SDS011;4761;49.490;10.908;2023-03-01T07:27:08;13.80;;;12.33;;
9445;SDS011;4761;49.490;10.908;2023-03-01T07:29:34;14.87;;;11.97;;
9445;SDS011;4761;49.490;10.908;2023-03-01T07:32:01;13.73;;;12.23;;
9445;SDS011;4761;49.490;10.908;2023-03-01T07:34:27;14.07;;;11.30;;
9445;SDS011;4761;49.490;10.908;2023-03-01T07:36:53;14.17;;;12.43;;
9445;SDS011;4761;49.490;10.908;2023-03-01T07:39:18;13.70;;;12.30;;
9445;SDS011;4761;49.490;10.908;2023-03-01T07:41:44;13.43;;;11.90;;
9445;SDS011;4761;49.490;10.908;2023-03-01T07:44:09;14.17;;;12.20;;
9445;SDS011;4761;49.490;10.908;2023-03-01T07:46:35;13.60;;;12.17;;
9445;SDS011;4761;49.490;10.908;2023-03-01T07:49:01;12.97;;;11.57;;
9445;SDS011;4761;49.490;10.908;2023-03-01T07:51:27;13.67;;;11.80;;
9445;SDS011;4761;49.490;10.908;2023-03-01T07:53:52;14.30;;;12.30;;
9445;SDS011;4761;49.490;10.908;2023-03-01T07:56:18;14.23;;;12.30;;
9445;SDS011;4761;49.490;10.908;2023-03-01T07:58:44;13.97;;;12.53;;
9445;SDS011;4761;49.490;10.908;2023-03-01T08:01:11;6.97;;;5.80;;
9445;SDS011;4761;49.490;10.908;2023-03-01T08:03:39;6.47;;;5.57;;
9445;SDS011;4761;49.490;10.908;2023-03-01T08:06:06;6.33;;;5.47;;
9445;SDS011;4761;49.490;10.908;2023-03-01T08:08:33;8.07;;;5.90;;
9445;SDS011;4761;49.490;10.908;2023-03-01T08:11:00;6.73;;;5.67;;
9445;SDS011;4761;49.490;10.908;2023-03-01T08:13:27;6.70;;;5.83;;
9445;SDS011;4761;49.490;10.908;2023-03-01T08:15:53;7.33;;;5.83;;
9445;SDS011;4761;49.490;10.908;2023-03-01T08:18:19;7.57;;;6.30;;
9445;SDS011;4761;49.490;10.908;2023-03-01T08:20:46;6.97;;;5.93;;
9445;SDS011;4761;49.490;10.908;2023-03-01T08:23:12;7.47;;;6.00;;
9445;SDS011;4761;49.490;10.908;2023-03-01T08:25:38;7.10;;;6.03;;
9445;SDS011;4761;49.490;10.908;2023-03-01T08:28:03;7.33;;;6.27;;
9445;SDS011;4761;49.490;10.908;2023-03-01T08:30:30;7.03;;;5.90;;
9445;SDS011;4761;49.490;10.908;2023-03-01T08:32:55;7.80;;;6.47;;
9445;SDS011;4761;49.490;10.908;2023-03-01T08:35:21;7.60;;;5.77;;
9445;SDS011;4761;49.490;10.908;2023-03-01T08:37:47;7.63;;;6.10;;
9445;SDS011;4761;49.490;10.908;2023-03-01T08:40:13;6.83;;;5.90;;
9445;SDS011;4761;49.490;10.908;2023-03-01T08:42:40;6.90;;;6.00;;
9445;SDS011;4761;49.490;10.908;2023-03-01T08:45:07;6.83;;;5.80;;
9445;SDS011;4761;49.490;10.908;2023-03-01T08:47:35;6.93;;;6.10;;
9445;SDS011;4761;49.490;10.908;2023-03-01T08:50:00;6.40;;;5.43;;
9445;SDS011;4761;49.490;10.908;2023-03-01T08:52:26;7.20;;;5.80;;
9445;SDS011;4761;49.490;10.908;2023-03-01T08:54:52;6.77;;;6.03;;
9445;SDS011;4761;49.490;10.908;2023-03-01T08:57:17;7.77;;;6.13;;
9445;SDS011;4761;49.490;10.908;2023-03-01T08:59:43;6.67;;;5.97;;
9445;SDS011;4761;49.490;10.908;2023-03-01T09:02:13;7.90;;;6.30;;
9445;SDS011;4761;49.490;10.908;2023-03-01T09:04:40;7.30;;;6.20;;
9445;SDS011;4761;49.490;10.908;2023-03-01T09:07:06;7.10;;;6.00;;
9445;SDS011;4761;49.490;10.908;2023-03-01T09:09:32;7.07;;;5.60;;
9445;SDS011;4761;49.490;10.908;2023-03-01T09:11:58;7.03;;;6.07;;
9445;SDS011;4761;49.490;10.908;2023-03-01T09:14:23;8.70;;;6.30;;
9445;SDS011;4761;49.490;10.908;2023-03-01T09:16:49;6.73;;;5.60;;
9445;SDS011;4761;49.490;10.908;2023-03-01T09:19:15;7.53;;;5.90;;
9445;SDS011;4761;49.490;10.908;2023-03-01T09:21:41;8.17;;;6.20;;
9445;SDS011;4761;49.490;10.908;2023-03-01T09:24:16;7.40;;;6.23;;
9445;SDS011;4761;49.490;10.908;2023-03-01T09:26:43;6.20;;;5.60;;
9445;SDS011;4761;49.490;10.908;2023-03-01T09:29:11;6.97;;;5.83;;
9445;SDS011;4761;49.490;10.908;2023-03-01T09:31:36;7.63;;;5.90;;
9445;SDS011;4761;49.490;10.908;2023-03-01T09:34:02;8.53;;;6.60;;
9445;SDS011;4761;49.490;10.908;2023-03-01T09:36:28;8.33;;;5.87;;
9445;SDS011;4761;49.490;10.908;2023-03-01T09:38:53;8.57;;;6.23;;
9445;SDS011;4761;49.490;10.908;2023-03-01T09:41:26;6.57;;;5.30;;
9445;SDS011;4761;49.490;10.908;2023-03-01T09:46:56;6.90;;;5.60;;
9445;SDS011;4761;49.490;10.908;2023-03-01T09:49:41;7.23;;;6.00;;
9445;SDS011;4761;49.490;10.908;2023-03-01T09:52:23;6.53;;;5.53;;
9445;SDS011;4761;49.490;10.908;2023-03-01T09:55:11;6.80;;;5.83;;
9445;SDS011;4761;49.490;10.908;2023-03-01T09:58:04;7.77;;;5.77;;
9445;SDS011;4761;49.490;10.908;2023-03-01T10:00:49;6.90;;;6.10;;
9445;SDS011;4761;49.490;10.908;2023-03-01T10:05:47;7.13;;;6.00;;
9445;SDS011;4761;49.490;10.908;2023-03-01T10:11:19;6.50;;;5.50;;
9445;SDS011;4761;49.490;10.908;2023-03-01T10:16:52;6.63;;;5.60;;
9445;SDS011;4761;49.490;10.908;2023-03-01T10:22:21;6.03;;;5.37;;
9445;SDS011;4761;49.490;10.908;2023-03-01T10:24:53;6.80;;;5.53;;
9445;SDS011;4761;49.490;10.908;2023-03-01T10:27:24;7.27;;;5.80;;
9445;SDS011;4761;49.490;10.908;2023-03-01T10:32:38;7.23;;;5.57;;
9445;SDS011;4761;49.490;10.908;2023-03-01T10:40:23;5.83;;;5.13;;
9445;SDS011;4761;49.490;10.908;2023-03-01T10:42:49;5.93;;;5.17;;
9445;SDS011;4761;49.490;10.908;2023-03-01T10:47:40;6.90;;;5.37;;
9445;SDS011;4761;49.490;10.908;2023-03-01T10:50:09;6.70;;;5.30;;
9445;SDS011;4761;49.490;10.908;2023-03-01T10:52:54;5.67;;;4.97;;
9445;SDS011;4761;49.490;10.908;2023-03-01T10:55:35;7.27;;;5.40;;
9445;SDS011;4761;49.490;10.908;2023-03-01T10:58:11;6.57;;;5.23;;
9445;SDS011;4761;49.490;10.908;2023-03-01T11:00:55;6.57;;;5.67;;
9445;SDS011;4761;49.490;10.908;2023-03-01T11:06:39;7.33;;;5.77;;
9445;SDS011;4761;49.490;10.908;2023-03-01T11:09:17;7.13;;;5.63;;
9445;SDS011;4761;49.490;10.908;2023-03-01T11:11:45;6.30;;;5.43;;
9445;SDS011;4761;49.490;10.908;2023-03-01T11:14:17;6.77;;;5.23;;
9445;SDS011;4761;49.490;10.908;2023-03-01T11:16:47;7.30;;;5.43;;
9445;SDS011;4761;49.490;10.908;2023-03-01T11:19:16;9.97;;;5.73;;
9445;SDS011;4761;49.490;10.908;2023-03-01T11:21:52;7.97;;;5.30;;
9445;SDS011;4761;49.490;10.908;2023-03-01T11:24:44;8.53;;;5.50;;
9445;SDS011;4761;49.490;10.908;2023-03-01T11:27:16;6.77;;;5.63;;
9445;SDS011;4761;49.490;10.908;2023-03-01T11:29:46;7.57;;;5.43;;
9445;SDS011;4761;49.490;10.908;2023-03-01T11:32:25;7.13;;;5.70;;
9445;SDS011;4761;49.490;10.908;2023-03-01T11:34:59;7.87;;;5.57;;
9445;SDS011;4761;49.490;10.908;2023-03-01T11:40:29;9.80;;;5.87;;
9445;SDS011;4761;49.490;10.908;2023-03-01T11:43:17;11.50;;;6.10;;
9445;SDS011;4761;49.490;10.908;2023-03-01T11:46:40;7.43;;;5.37;;
9445;SDS011;4761;49.490;10.908;2023-03-01T11:54:30;10.07;;;6.17;;
9445;SDS011;4761;49.490;10.908;2023-03-01T11:57:31;6.37;;;5.60;;
9445;SDS011;4761;49.490;10.908;2023-03-01T12:00:32;8.10;;;5.67;;
9445;SDS011;4761;49.490;10.908;2023-03-01T12:03:38;8.53;;;5.87;;
9445;SDS011;4761;49.490;10.908;2023-03-01T12:12:00;9.63;;;6.00;;
9445;SDS011;4761;49.490;10.908;2023-03-01T12:14:58;7.50;;;5.53;;
9445;SDS011;4761;49.490;10.908;2023-03-01T12:17:52;7.67;;;5.60;;
9445;SDS011;4761;49.490;10.908;2023-03-01T12:23:48;6.37;;;5.63;;
9445;SDS011;4761;49.490;10.908;2023-03-01T12:26:26;8.20;;;5.40;;
9445;SDS011;4761;49.490;10.908;2023-03-01T12:29:01;7.93;;;5.60;;
9445;SDS011;4761;49.490;10.908;2023-03-01T12:40:30;8.10;;;5.87;;
9445;SDS011;4761;49.490;10.908;2023-03-01T12:43:20;7.77;;;5.40;;
9445;SDS011;4761;49.490;10.908;2023-03-01T12:51:02;6.87;;;5.30;;
9445;SDS011;4761;49.490;10.908;2023-03-01T12:53:32;7.50;;;5.53;;
9445;SDS011;4761;49.490;10.908;2023-03-01T12:56:02;6.87;;;5.37;;
9445;SDS011;4761;49.490;10.908;2023-03-01T12:58:32;7.90;;;5.73;;
9445;SDS011;4761;49.490;10.908;2023-03-01T13:01:15;7.30;;;5.63;;
9445;SDS011;4761;49.490;10.908;2023-03-01T13:20:54;6.00;;;5.37;;
9445;SDS011;4761;49.490;10.908;2023-03-01T13:25:59;7.80;;;6.20;;
9445;SDS011;4761;49.490;10.908;2023-03-01T13:33:50;8.00;;;6.20;;
9445;SDS011;4761;49.490;10.908;2023-03-01T13:38:55;6.80;;;5.53;;
9445;SDS011;4761;49.490;10.908;2023-03-01T13:46:38;7.50;;;5.70;;
9445;SDS011;4761;49.490;10.908;2023-03-01T13:49:03;7.37;;;5.90;;
9445;SDS011;4761;49.490;10.908;2023-03-01T13:51:29;7.63;;;6.17;;
9445;SDS011;4761;49.490;10.908;2023-03-01T13:53:55;8.03;;;6.33;;
9445;SDS011;4761;49.490;10.908;2023-03-01T13:56:26;9.13;;;7.03;;
9445;SDS011;4761;49.490;10.908;2023-03-01T13:58:54;9.10;;;7.03;;
9445;SDS011;4761;49.490;10.908;2023-03-01T14:01:28;8.03;;;6.93;;
9445;SDS011;4761;49.490;10.908;2023-03-01T14:03:56;19.50;;;7.83;;
9445;SDS011;4761;49.490;10.908;2023-03-01T14:06:26;25.73;;;7.60;;
9445;SDS011;4761;49.490;10.908;2023-03-01T14:09:01;20.17;;;7.00;;
9445;SDS011;4761;49.490;10.908;2023-03-01T14:19:59;15.40;;;6.70;;
9445;SDS011;4761;49.490;10.908;2023-03-01T14:22:36;11.57;;;6.40;;
9445;SDS011;4761;49.490;10.908;2023-03-01T14:25:06;15.23;;;6.17;;
9445;SDS011;4761;49.490;10.908;2023-03-01T14:27:57;13.03;;;6.23;;
9445;SDS011;4761;49.490;10.908;2023-03-01T14:30:59;8.93;;;6.07;;
9445;SDS011;4761;49.490;10.908;2023-03-01T14:33:32;11.23;;;5.90;;
9445;SDS011;4761;49.490;10.908;2023-03-01T14:36:03;9.83;;;5.90;;
9445;SDS011;4761;49.490;10.908;2023-03-01T14:38:37;9.47;;;6.10;;
9445;SDS011;4761;49.490;10.908;2023-03-01T14:41:25;9.73;;;5.80;;
9445;SDS011;4761;49.490;10.908;2023-03-01T14:43:55;9.97;;;5.83;;
9445;SDS011;4761;49.490;10.908;2023-03-01T14:46:26;6.80;;;4.93;;
9445;SDS011;4761;49.490;10.908;2023-03-01T14:48:56;8.13;;;5.20;;
9445;SDS011;4761;49.490;10.908;2023-03-01T14:51:28;6.70;;;5.13;;
9445;SDS011;4761;49.490;10.908;2023-03-01T14:53:53;7.87;;;5.10;;
9445;SDS011;4761;49.490;10.908;2023-03-01T14:56:20;8.90;;;5.57;;
9445;SDS011;4761;49.490;10.908;2023-03-01T14:58:46;9.20;;;4.90;;
9445;SDS011;4761;49.490;10.908;2023-03-01T15:01:16;8.10;;;5.33;;
9445;SDS011;4761;49.490;10.908;2023-03-01T15:03:44;8.30;;;5.13;;
9445;SDS011;4761;49.490;10.908;2023-03-01T15:06:14;7.50;;;5.40;;
9445;SDS011;4761;49.490;10.908;2023-03-01T15:08:42;6.93;;;5.57;;
9445;SDS011;4761;49.490;10.908;2023-03-01T15:11:27;7.83;;;5.77;;
9445;SDS011;4761;49.490;10.908;2023-03-01T15:13:57;6.33;;;5.10;;
9445;SDS011;4761;49.490;10.908;2023-03-01T15:19:05;7.43;;;5.17;;
9445;SDS011;4761;49.490;10.908;2023-03-01T15:21:32;7.60;;;5.17;;
9445;SDS011;4761;49.490;10.908;2023-03-01T15:26:44;7.33;;;5.23;;
9445;SDS011;4761;49.490;10.908;2023-03-01T15:29:23;7.40;;;5.50;;
9445;SDS011;4761;49.490;10.908;2023-03-01T15:32:01;7.23;;;4.93;;
9445;SDS011;4761;49.490;10.908;2023-03-01T15:34:29;6.80;;;5.33;;
9445;SDS011;4761;49.490;10.908;2023-03-01T15:36:57;8.17;;;5.43;;
9445;SDS011;4761;49.490;10.908;2023-03-01T15:39:33;7.27;;;5.33;;
9445;SDS011;4761;49.490;10.908;2023-03-01T15:42:13;6.00;;;5.10;;
9445;SDS011;4761;49.490;10.908;2023-03-01T15:45:09;8.03;;;5.50;;
9445;SDS011;4761;49.490;10.908;2023-03-01T15:47:49;8.80;;;5.37;;
9445;SDS011;4761;49.490;10.908;2023-03-01T15:50:19;6.27;;;5.00;;
9445;SDS011;4761;49.490;10.908;2023-03-01T15:52:47;7.70;;;5.00;;
9445;SDS011;4761;49.490;10.908;2023-03-01T15:55:21;7.77;;;5.30;;
9445;SDS011;4761;49.490;10.908;2023-03-01T15:57:57;6.90;;;5.17;;
9445;SDS011;4761;49.490;10.908;2023-03-01T16:00:25;6.37;;;5.17;;
9445;SDS011;4761;49.490;10.908;2023-03-01T16:02:51;7.07;;;5.03;;
9445;SDS011;4761;49.490;10.908;2023-03-01T16:07:48;6.00;;;4.60;;
9445;SDS011;4761;49.490;10.908;2023-03-01T16:10:15;5.83;;;4.57;;
9445;SDS011;4761;49.490;10.908;2023-03-01T16:12:41;6.30;;;5.20;;
9445;SDS011;4761;49.490;10.908;2023-03-01T16:15:17;8.03;;;5.17;;
9445;SDS011;4761;49.490;10.908;2023-03-01T16:17:51;7.13;;;5.47;;
9445;SDS011;4761;49.490;10.908;2023-03-01T16:20:20;7.70;;;5.17;;
9445;SDS011;4761;49.490;10.908;2023-03-01T16:22:45;6.90;;;5.03;;
9445;SDS011;4761;49.490;10.908;2023-03-01T16:25:12;5.97;;;4.77;;
9445;SDS011;4761;49.490;10.908;2023-03-01T16:27:41;6.67;;;4.93;;
9445;SDS011;4761;49.490;10.908;2023-03-01T16:30:09;6.60;;;5.10;;
9445;SDS011;4761;49.490;10.908;2023-03-01T16:32:39;6.83;;;4.87;;
9445;SDS011;4761;49.490;10.908;2023-03-01T16:35:09;7.03;;;5.00;;
9445;SDS011;4761;49.490;10.908;2023-03-01T16:37:37;6.13;;;4.73;;
9445;SDS011;4761;49.490;10.908;2023-03-01T16:40:03;6.10;;;5.07;;
9445;SDS011;4761;49.490;10.908;2023-03-01T16:42:36;6.07;;;5.07;;
9445;SDS011;4761;49.490;10.908;2023-03-01T16:45:02;6.03;;;4.93;;
9445;SDS011;4761;49.490;10.908;2023-03-01T16:47:28;8.53;;;5.50;;
9445;SDS011;4761;49.490;10.908;2023-03-01T16:49:54;7.00;;;5.40;;
9445;SDS011;4761;49.490;10.908;2023-03-01T16:52:20;6.10;;;5.20;;
9445;SDS011;4761;49.490;10.908;2023-03-01T16:54:47;7.93;;;5.17;;
9445;SDS011;4761;49.490;10.908;2023-03-01T16:57:13;7.10;;;5.33;;
9445;SDS011;4761;49.490;10.908;2023-03-01T16:59:38;6.40;;;4.97;;
9445;SDS011;4761;49.490;10.908;2023-03-01T17:02:04;6.93;;;5.60;;
9445;SDS011;4761;49.490;10.908;2023-03-01T17:04:31;7.27;;;5.70;;
9445;SDS011;4761;49.490;10.908;2023-03-01T17:06:57;7.00;;;5.80;;
9445;SDS011;4761;49.490;10.908;2023-03-01T17:09:22;8.60;;;6.33;;